createdAt,value
2023-05-05T00:01:41.109Z,98229.73
2023-05-05T00:04:08.118Z,98231.54
2023-05-05T00:06:34.800Z,98229.45
2023-05-05T00:09:01.436Z,98229.20
2023-05-05T00:11:27.970Z,98227.30
2023-05-05T00:13:54.740Z,98227.86
2023-05-05T00:16:22.690Z,98229.50
2023-05-05T00:18:49.340Z,98227.36
2023-05-05T00:21:16.013Z,98227.04
2023-05-05T00:23:42.804Z,98227.49
2023-05-05T00:26:09.365Z,98227.83
2023-05-05T00:28:37.413Z,98230.19
2023-05-05T00:31:04.058Z,98226.34
2023-05-05T00:33:30.707Z,98223.98
2023-05-05T00:35:57.238Z,98223.03
2023-05-05T00:38:23.977Z,98222.23
2023-05-05T00:40:50.665Z,98216.45
2023-05-05T00:43:17.355Z,98217.19
2023-05-05T00:45:46.897Z,98216.90
2023-05-05T00:48:13.960Z,98217.02
2023-05-05T00:50:40.893Z,98216.32
2023-05-05T00:53:07.423Z,98220.42
2023-05-05T00:55:34.188Z,98217.02
2023-05-05T00:58:01.979Z,98220.86
2023-05-05T01:00:29.477Z,98218.88
2023-05-05T01:02:56.575Z,98218.34
2023-05-05T01:05:23.928Z,98218.13
2023-05-05T01:07:54.324Z,98221.43
2023-05-05T01:10:46.316Z,98220.10
2023-05-05T01:13:37.021Z,98224.59
2023-05-05T01:16:03.719Z,98217.06
2023-05-05T01:18:55.055Z,98219.23
2023-05-05T01:21:33.313Z,98219.64
2023-05-05T01:24:10.323Z,98214.58
2023-05-05T01:26:59.999Z,98213.05
2023-05-05T01:29:54.548Z,98209.95
2023-05-05T01:32:29.249Z,98208.67
2023-05-05T01:34:59.981Z,98206.17
2023-05-05T01:37:29.381Z,98206.70
2023-05-05T01:39:58.452Z,98205.57
2023-05-05T01:42:25.631Z,98206.23
2023-05-05T01:44:53.596Z,98205.92
2023-05-05T01:47:21.371Z,98204.70
2023-05-05T01:49:48.215Z,98203.39
2023-05-05T01:52:14.863Z,98199.59
2023-05-05T01:54:42.276Z,98205.03
2023-05-05T01:57:09.461Z,98201.60
2023-05-05T01:59:37.217Z,98199.84
2023-05-05T02:02:04.131Z,98197.95
2023-05-05T02:04:31.591Z,98197.91
2023-05-05T02:06:58.269Z,98198.52
2023-05-05T02:09:25.159Z,98200.95
2023-05-05T02:11:52.730Z,98199.14
2023-05-05T02:14:20.303Z,98195.83
2023-05-05T02:16:46.923Z,98191.55
2023-05-05T02:19:14.082Z,98193.91
2023-05-05T02:21:41.635Z,98190.43
2023-05-05T02:24:08.384Z,98193.26
2023-05-05T02:26:38.400Z,98194.58
2023-05-05T02:29:07.284Z,98196.73
2023-05-05T02:31:37.800Z,98194.61
2023-05-05T02:34:04.873Z,98196.38
2023-05-05T02:36:36.718Z,98196.29
2023-05-05T02:39:28.972Z,98194.08
2023-05-05T02:41:56.431Z,98193.39
2023-05-05T02:44:25.309Z,98190.77
2023-05-05T02:46:53.468Z,98190.59
2023-05-05T02:49:20.608Z,98192.89
2023-05-05T02:51:48.785Z,98189.63
2023-05-05T02:54:20.730Z,98188.14
2023-05-05T02:56:49.032Z,98189.41
2023-05-05T02:59:36.161Z,98186.47
2023-05-05T03:02:18.535Z,98183.60
2023-05-05T03:05:07.142Z,98183.56
2023-05-05T03:07:40.387Z,98187.20
2023-05-05T03:10:15.972Z,98187.50
2023-05-05T03:12:50.213Z,98187.65
2023-05-05T03:15:26.022Z,98188.14
2023-05-05T03:17:52.698Z,98188.52
2023-05-05T03:20:20.576Z,98192.20
2023-05-05T03:22:47.675Z,98192.40
2023-05-05T03:25:14.416Z,98192.48
2023-05-05T03:27:41.060Z,98194.93
2023-05-05T03:30:09.772Z,98194.65
2023-05-05T03:32:41.085Z,98194.60
2023-05-05T03:35:08.378Z,98194.23
2023-05-05T03:37:35.274Z,98199.02
2023-05-05T03:40:01.937Z,98198.37
2023-05-05T03:42:28.975Z,98200.45
2023-05-05T03:44:56.582Z,98200.34
2023-05-05T03:47:24.027Z,98203.36
2023-05-05T03:49:50.868Z,98204.80
2023-05-05T03:52:17.527Z,98207.48
2023-05-05T03:54:45.440Z,98208.63
2023-05-05T03:57:12.295Z,98210.73
2023-05-05T03:59:39.007Z,98212.15
2023-05-05T04:02:06.332Z,98213.39
2023-05-05T04:04:33.245Z,98216.61
2023-05-05T04:07:00.431Z,98216.13
2023-05-05T04:09:27.028Z,98217.35
2023-05-05T04:11:53.876Z,98217.60
2023-05-05T04:14:20.853Z,98220.52
2023-05-05T04:16:47.979Z,98226.92
2023-05-05T04:19:14.732Z,98223.65
2023-05-05T04:21:42.063Z,98227.62
2023-05-05T04:24:09.072Z,98228.06
2023-05-05T04:26:35.981Z,98231.61
2023-05-05T04:29:03.027Z,98231.95
2023-05-05T04:31:31.178Z,98228.35
2023-05-05T04:33:57.894Z,98230.77
2023-05-05T04:36:24.892Z,98232.94
2023-05-05T04:38:51.558Z,98230.61
2023-05-05T04:41:18.434Z,98232.27
2023-05-05T04:43:45.764Z,98232.08
2023-05-05T04:46:12.755Z,98232.69
2023-05-05T04:48:39.597Z,98229.89
2023-05-05T04:51:07.104Z,98229.90
2023-05-05T04:53:33.865Z,98234.84
2023-05-05T04:56:00.938Z,98237.22
2023-05-05T04:58:28.207Z,98236.86
2023-05-05T05:00:55.131Z,98236.65
2023-05-05T05:03:21.830Z,98237.83
2023-05-05T05:05:48.923Z,98237.55
2023-05-05T05:08:16.444Z,98237.63
2023-05-05T05:10:44.010Z,98241.88
2023-05-05T05:13:12.767Z,98244.45
2023-05-05T05:15:40.270Z,98247.12
2023-05-05T05:18:07.304Z,98246.71
2023-05-05T05:20:34.412Z,98247.33
2023-05-05T05:23:01.742Z,98245.77
2023-05-05T05:25:29.190Z,98247.17
2023-05-05T05:30:29.516Z,98249.54
2023-05-05T05:32:56.178Z,98253.18
2023-05-05T05:35:23.993Z,98257.31
2023-05-05T05:37:51.992Z,98253.46
2023-05-05T05:40:19.536Z,98250.52
2023-05-05T05:42:46.785Z,98250.52
2023-05-05T05:45:13.497Z,98253.75
2023-05-05T05:47:40.624Z,98256.73
2023-05-05T05:50:08.266Z,98255.95
2023-05-05T05:52:35.655Z,98259.52
2023-05-05T05:55:02.813Z,98260.23
2023-05-05T05:57:29.355Z,98259.80
2023-05-05T05:59:55.984Z,98261.65
2023-05-05T06:02:26.186Z,98261.65
2023-05-05T06:04:53.395Z,98264.06
2023-05-05T06:07:20.959Z,98267.41
2023-05-05T06:09:47.851Z,98268.00
2023-05-05T06:12:14.982Z,98266.56
2023-05-05T06:14:41.858Z,98265.95
2023-05-05T06:17:08.468Z,98263.73
2023-05-05T06:19:38.687Z,98265.29
2023-05-05T06:22:05.590Z,98267.38
2023-05-05T06:24:32.709Z,98265.34
2023-05-05T06:26:59.861Z,98264.27
2023-05-05T06:29:26.386Z,98269.55
2023-05-05T06:31:53.055Z,98268.85
2023-05-05T06:34:20.153Z,98271.55
2023-05-05T06:36:46.911Z,98269.91
2023-05-05T06:39:15.807Z,98270.48
2023-05-05T06:41:42.888Z,98271.71
2023-05-05T06:44:10.701Z,98270.69
2023-05-05T06:46:37.522Z,98271.48
2023-05-05T06:49:04.274Z,98266.91
2023-05-05T06:51:31.111Z,98263.26
2023-05-05T06:53:57.697Z,98269.11
2023-05-05T06:56:24.533Z,98271.48
2023-05-05T06:58:51.236Z,98274.15
2023-05-05T07:01:17.998Z,98274.56
2023-05-05T07:03:44.800Z,98274.80
2023-05-05T07:06:11.948Z,98271.70
2023-05-05T07:08:38.860Z,98274.80
2023-05-05T07:11:05.530Z,98274.15
2023-05-05T07:13:32.155Z,98276.70
2023-05-05T07:15:59.137Z,98272.54
2023-05-05T07:18:26.140Z,98278.10
2023-05-05T07:20:52.690Z,98276.90
2023-05-05T07:23:20.250Z,98275.48
2023-05-05T07:25:47.208Z,98271.47
2023-05-05T07:28:13.833Z,98273.11
2023-05-05T07:30:41.619Z,98274.25
2023-05-05T07:33:11.067Z,98279.24
2023-05-05T07:35:37.639Z,98278.59
2023-05-05T07:38:04.470Z,98278.96
2023-05-05T07:40:31.417Z,98275.82
2023-05-05T07:42:57.925Z,98277.33
2023-05-05T07:45:24.643Z,98279.23
2023-05-05T07:47:51.317Z,98277.70
2023-05-05T07:50:18.339Z,98277.70
2023-05-05T07:52:53.792Z,98279.42
2023-05-05T07:55:25.760Z,98280.89
2023-05-05T07:57:52.512Z,98280.40
2023-05-05T08:00:19.234Z,98280.80
2023-05-05T08:02:47.102Z,98280.56
2023-05-05T08:05:13.808Z,98282.40
2023-05-05T08:07:40.579Z,98283.79
2023-05-05T08:10:11.049Z,98285.01
2023-05-05T08:12:38.436Z,98283.25
2023-05-05T08:15:06.076Z,98283.62
2023-05-05T08:17:49.198Z,98285.02
2023-05-05T08:20:17.396Z,98283.90
2023-05-05T08:22:45.145Z,98283.38
2023-05-05T08:25:12.483Z,98285.74
2023-05-05T08:27:39.955Z,98285.72
2023-05-05T08:30:07.126Z,98286.28
2023-05-05T08:32:33.734Z,98281.86
2023-05-05T08:35:01.769Z,98284.03
2023-05-05T08:37:28.939Z,98282.39
2023-05-05T08:39:57.043Z,98283.83
2023-05-05T08:42:36.273Z,98286.28
2023-05-05T08:45:04.835Z,98289.27
2023-05-05T08:47:31.596Z,98289.31
2023-05-05T08:49:58.449Z,98290.49
2023-05-05T08:52:25.194Z,98295.89
2023-05-05T08:54:57.284Z,98297.41
2023-05-05T08:57:36.651Z,98299.11
2023-05-05T09:00:03.669Z,98299.31
2023-05-05T09:02:30.612Z,98293.02
2023-05-05T09:04:57.369Z,98297.23
2023-05-05T09:07:23.927Z,98296.69
2023-05-05T09:09:50.704Z,98295.52
2023-05-05T09:12:18.180Z,98294.39
2023-05-05T09:14:45.658Z,98291.32
2023-05-05T09:17:25.208Z,98293.16
2023-05-05T09:20:08.039Z,98290.93
2023-05-05T09:22:42.241Z,98291.96
2023-05-05T09:25:12.935Z,98289.31
2023-05-05T09:27:46.244Z,98292.21
2023-05-05T09:30:23.932Z,98288.82
2023-05-05T09:32:51.788Z,98287.30
2023-05-05T09:35:19.062Z,98290.47
2023-05-05T09:37:46.043Z,98288.06
2023-05-05T09:40:13.605Z,98287.90
2023-05-05T09:42:41.286Z,98291.15
2023-05-05T09:45:16.953Z,98288.65
2023-05-05T09:47:45.079Z,98283.39
2023-05-05T09:50:15.260Z,98288.84
2023-05-05T09:52:42.273Z,98285.23
2023-05-05T09:55:18.070Z,98286.70
2023-05-05T09:57:46.623Z,98281.14
2023-05-05T10:00:13.954Z,98283.60
2023-05-05T10:02:41.369Z,98278.41
2023-05-05T10:05:16.248Z,98280.87
2023-05-05T10:07:44.554Z,98280.59
2023-05-05T10:10:15.612Z,98279.06
2023-05-05T10:12:42.551Z,98275.52
2023-05-05T10:15:10.264Z,98272.92
2023-05-05T10:18:02.248Z,98270.15
2023-05-05T10:20:32.895Z,98268.58
2023-05-05T10:22:59.487Z,98267.44
2023-05-05T10:25:29.353Z,98268.11
2023-05-05T10:27:58.877Z,98263.34
2023-05-05T10:30:31.060Z,98260.52
2023-05-05T10:35:41.052Z,98263.61
2023-05-05T10:38:10.934Z,98260.38
2023-05-05T10:40:42.512Z,98258.34
2023-05-05T10:43:09.142Z,98258.55
2023-05-05T10:45:36.658Z,98248.94
2023-05-05T10:48:04.093Z,98249.85
2023-05-05T10:50:44.372Z,98241.02
2023-05-05T10:53:23.981Z,98242.05
2023-05-05T10:56:03.492Z,98245.14
2023-05-05T10:58:43.744Z,98242.69
2023-05-05T11:01:32.577Z,98244.69
2023-05-05T11:04:18.890Z,98244.73
2023-05-05T11:07:13.727Z,98242.34
2023-05-05T11:09:58.131Z,98240.09
2023-05-05T11:12:24.817Z,98240.80
2023-05-05T11:15:25.532Z,98243.05
2023-05-05T11:17:53.453Z,98240.21
2023-05-05T11:20:39.026Z,98238.17
2023-05-05T11:23:05.758Z,98238.36
2023-05-05T11:25:36.029Z,98235.95
2023-05-05T11:28:12.985Z,98234.66
2023-05-05T11:30:58.395Z,98233.66
2023-05-05T11:33:36.537Z,98230.30
2023-05-05T11:36:05.955Z,98227.10
2023-05-05T11:38:51.949Z,98224.20
2023-05-05T11:41:18.443Z,98227.58
2023-05-05T11:43:45.363Z,98225.60
2023-05-05T11:46:13.071Z,98226.36
2023-05-05T11:48:49.094Z,98227.27
2023-05-05T11:51:16.585Z,98229.83
2023-05-05T11:53:47.625Z,98229.35
2023-05-05T11:56:19.903Z,98225.27
2023-05-05T11:58:47.446Z,98222.16
2023-05-05T12:01:14.111Z,98219.77
2023-05-05T12:03:41.112Z,98219.82
2023-05-05T12:06:08.011Z,98217.17
2023-05-05T12:08:43.695Z,98211.67
2023-05-05T12:11:10.886Z,98208.41
2023-05-05T12:13:37.917Z,98203.10
2023-05-05T12:16:22.510Z,98202.45
2023-05-05T12:18:49.150Z,98194.02
2023-05-05T12:21:19.337Z,98194.17
2023-05-05T12:23:45.982Z,98187.39
2023-05-05T12:26:26.083Z,98183.40
2023-05-05T12:28:52.742Z,98178.16
2023-05-05T12:31:19.574Z,98179.11
2023-05-05T12:33:46.372Z,98177.66
2023-05-05T12:36:12.999Z,98177.25
2023-05-05T12:38:39.579Z,98176.61
2023-05-05T12:41:06.236Z,98171.94
2023-05-05T12:43:34.071Z,98168.54
2023-05-05T12:46:11.377Z,98166.44
2023-05-05T12:48:40.006Z,98162.16
2023-05-05T12:51:36.138Z,98158.23
2023-05-05T12:54:11.735Z,98155.51
2023-05-05T12:56:43.007Z,98152.35
2023-05-05T12:59:28.745Z,98149.16
2023-05-05T13:01:56.986Z,98147.58
2023-05-05T13:04:25.286Z,98143.86
2023-05-05T13:07:10.839Z,98142.52
2023-05-05T13:09:37.335Z,98134.95
2023-05-05T13:12:04.432Z,98137.98
2023-05-05T13:14:31.439Z,98133.52
2023-05-05T13:16:59.170Z,98130.12
2023-05-05T13:19:27.007Z,98130.23
2023-05-05T13:21:56.897Z,98127.86
2023-05-05T13:24:31.544Z,98128.25
2023-05-05T13:27:05.430Z,98130.05
2023-05-05T13:29:32.934Z,98128.42
2023-05-05T13:31:59.805Z,98127.46
2023-05-05T13:34:26.434Z,98133.30
2023-05-05T13:36:52.981Z,98128.55
2023-05-05T13:39:19.808Z,98132.33
2023-05-05T13:41:46.502Z,98130.85
2023-05-05T13:44:13.756Z,98126.92
2023-05-05T13:46:41.778Z,98130.74
2023-05-05T13:49:08.356Z,98130.89
2023-05-05T13:51:35.157Z,98129.50
2023-05-05T13:54:02.430Z,98124.79
2023-05-05T13:56:29.124Z,98124.16
2023-05-05T13:58:55.653Z,98123.03
2023-05-05T14:01:22.627Z,98116.08
2023-05-05T14:03:49.787Z,98110.65
2023-05-05T14:06:16.413Z,98106.31
2023-05-05T14:08:43.050Z,98107.29
2023-05-05T14:11:10.035Z,98108.19
2023-05-05T14:13:36.590Z,98106.35
2023-05-05T14:16:03.548Z,98106.80
2023-05-05T14:18:30.521Z,98104.66
2023-05-05T14:20:57.332Z,98103.85
2023-05-05T14:23:23.963Z,98103.45
2023-05-05T14:25:50.546Z,98102.26
2023-05-05T14:28:17.388Z,98100.21
2023-05-05T14:30:44.192Z,98098.90
2023-05-05T14:33:10.910Z,98098.58
2023-05-05T14:35:37.717Z,98098.24
2023-05-05T14:38:04.483Z,98091.59
2023-05-05T14:40:31.493Z,98090.81
2023-05-05T14:42:58.435Z,98089.30
2023-05-05T14:45:26.660Z,98094.20
2023-05-05T14:47:53.712Z,98093.61
2023-05-05T14:50:20.389Z,98093.70
2023-05-05T14:52:47.021Z,98092.48
2023-05-05T14:55:13.559Z,98091.54
2023-05-05T14:57:40.363Z,98091.89
2023-05-05T15:00:07.583Z,98093.52
2023-05-05T15:02:34.469Z,98090.54
2023-05-05T15:05:01.478Z,98090.69
2023-05-05T15:07:28.663Z,98088.89
2023-05-05T15:09:55.864Z,98087.94
2023-05-05T15:12:22.609Z,98090.16
2023-05-05T15:14:49.192Z,98087.10
2023-05-05T15:17:16.048Z,98088.15
2023-05-05T15:19:42.637Z,98088.96
2023-05-05T15:22:09.367Z,98088.34
2023-05-05T15:24:36.760Z,98088.10
2023-05-05T15:27:03.582Z,98088.46
2023-05-05T15:29:30.140Z,98088.58
2023-05-05T15:31:56.797Z,98085.43
2023-05-05T15:34:23.827Z,98083.05
2023-05-05T15:36:50.905Z,98081.23
2023-05-05T15:39:18.131Z,98079.92
2023-05-05T15:41:45.046Z,98076.89
2023-05-05T15:44:11.820Z,98077.65
2023-05-05T15:46:39.170Z,98076.73
2023-05-05T15:49:06.751Z,98079.06
2023-05-05T15:51:33.635Z,98076.77
2023-05-05T15:54:00.306Z,98077.62
2023-05-05T15:56:27.076Z,98074.68
2023-05-05T15:58:53.851Z,98073.45
2023-05-05T16:01:20.440Z,98076.54
2023-05-05T16:03:47.240Z,98074.83
2023-05-05T16:06:14.142Z,98074.98
2023-05-05T16:08:40.727Z,98068.94
2023-05-05T16:11:07.349Z,98069.26
2023-05-05T16:13:34.091Z,98069.63
2023-05-05T16:16:01.004Z,98071.41
2023-05-05T16:18:27.741Z,98069.11
2023-05-05T16:20:54.485Z,98071.42
2023-05-05T16:23:21.183Z,98069.44
2023-05-05T16:25:47.869Z,98062.90
2023-05-05T16:28:14.414Z,98062.69
2023-05-05T16:30:42.431Z,98063.42
2023-05-05T16:33:09.408Z,98067.94
2023-05-05T16:35:36.137Z,98063.01
2023-05-05T16:38:03.013Z,98068.20
2023-05-05T16:40:29.760Z,98069.39
2023-05-05T16:42:57.022Z,98072.00
2023-05-05T16:45:23.936Z,98074.31
2023-05-05T16:47:50.746Z,98076.77
2023-05-05T16:50:17.528Z,98074.76
2023-05-05T16:52:44.073Z,98073.52
2023-05-05T16:55:10.855Z,98074.38
2023-05-05T16:57:37.826Z,98078.55
2023-05-05T17:00:05.721Z,98079.54
2023-05-05T17:02:32.593Z,98078.14
2023-05-05T17:04:59.635Z,98077.98
2023-05-05T17:07:26.554Z,98082.14
2023-05-05T17:09:53.279Z,98085.19
2023-05-05T17:12:19.813Z,98083.70
2023-05-05T17:14:46.660Z,98084.35
2023-05-05T17:17:13.745Z,98081.94
2023-05-05T17:19:41.910Z,98078.27
2023-05-05T17:22:08.692Z,98079.80
2023-05-05T17:24:35.738Z,98075.31
2023-05-05T17:27:02.645Z,98078.93
2023-05-05T17:29:29.263Z,98080.52
2023-05-05T17:31:56.144Z,98080.27
2023-05-05T17:34:22.857Z,98083.84
2023-05-05T17:36:50.556Z,98082.78
2023-05-05T17:39:17.225Z,98086.50
2023-05-05T17:41:43.940Z,98087.00
2023-05-05T17:44:10.446Z,98090.30
2023-05-05T17:46:37.018Z,98092.78
2023-05-05T17:49:03.574Z,98093.52
2023-05-05T17:51:30.834Z,98095.94
2023-05-05T17:53:57.697Z,98095.48
2023-05-05T17:56:24.402Z,98095.91
2023-05-05T17:58:51.265Z,98099.55
2023-05-05T18:01:22.032Z,98102.71
2023-05-05T18:03:49.097Z,98107.77
2023-05-05T18:06:15.647Z,98105.23
2023-05-05T18:08:42.840Z,98112.45
2023-05-05T18:11:09.732Z,98114.10
2023-05-05T18:13:36.841Z,98116.63
2023-05-05T18:16:04.325Z,98119.10
2023-05-05T18:18:30.899Z,98114.86
2023-05-05T18:20:57.598Z,98118.08
2023-05-05T18:23:24.107Z,98117.10
2023-05-05T18:25:50.621Z,98120.60
2023-05-05T18:28:17.221Z,98125.05
2023-05-05T18:30:43.857Z,98125.29
2023-05-05T18:33:10.643Z,98129.17
2023-05-05T18:35:37.498Z,98133.04
2023-05-05T18:38:04.747Z,98134.65
2023-05-05T18:40:31.618Z,98131.35
2023-05-05T18:42:58.583Z,98130.89
2023-05-05T18:45:25.256Z,98126.89
2023-05-05T18:47:51.851Z,98124.89
2023-05-05T18:50:18.578Z,98129.08
2023-05-05T18:52:45.243Z,98135.11
2023-05-05T18:55:12.199Z,98139.50
2023-05-05T18:57:38.920Z,98142.23
2023-05-05T19:00:06.219Z,98147.14
2023-05-05T19:02:33.071Z,98144.88
2023-05-05T19:04:59.762Z,98148.55
2023-05-05T19:07:35.070Z,98151.31
2023-05-05T19:10:05.906Z,98147.84
2023-05-05T19:12:32.493Z,98149.82
2023-05-05T19:14:59.446Z,98151.23
2023-05-05T19:17:26.413Z,98152.16
2023-05-05T19:19:53.058Z,98157.65
2023-05-05T19:22:22.465Z,98157.44
2023-05-05T19:24:49.066Z,98160.23
2023-05-05T19:27:16.855Z,98153.40
2023-05-05T19:29:43.803Z,98155.11
2023-05-05T19:32:10.594Z,98155.61
2023-05-05T19:34:37.442Z,98153.38
2023-05-05T19:37:04.181Z,98152.63
2023-05-05T19:39:30.965Z,98154.25
2023-05-05T19:41:57.471Z,98151.27
2023-05-05T19:44:24.138Z,98151.30
2023-05-05T19:46:52.256Z,98151.46
2023-05-05T19:49:19.011Z,98148.20
2023-05-05T19:51:49.182Z,98147.95
2023-05-05T19:54:15.872Z,98145.45
2023-05-05T19:56:42.731Z,98146.62
2023-05-05T19:59:10.167Z,98150.77
2023-05-05T20:01:36.852Z,98146.60
2023-05-05T20:04:03.997Z,98146.35
2023-05-05T20:06:31.557Z,98143.77
2023-05-05T20:08:58.398Z,98143.36
2023-05-05T20:11:25.154Z,98146.48
2023-05-05T20:13:52.314Z,98146.85
2023-05-05T20:16:19.053Z,98144.71
2023-05-05T20:18:46.056Z,98143.12
2023-05-05T20:21:13.569Z,98145.33
2023-05-05T20:23:42.103Z,98143.20
2023-05-05T20:26:08.726Z,98142.41
2023-05-05T20:28:35.796Z,98146.48
2023-05-05T20:31:02.588Z,98143.34
2023-05-05T20:33:29.205Z,98147.31
2023-05-05T20:35:55.848Z,98146.30
2023-05-05T20:38:22.458Z,98141.02
2023-05-05T20:40:49.494Z,98142.48
2023-05-05T20:43:16.032Z,98141.22
2023-05-05T20:45:43.267Z,98140.64
2023-05-05T20:48:10.707Z,98140.17
2023-05-05T20:50:37.941Z,98140.02
2023-05-05T20:53:06.969Z,98140.17
2023-05-05T20:55:33.778Z,98145.11
2023-05-05T20:58:00.547Z,98140.80
2023-05-05T21:00:27.215Z,98145.10
2023-05-05T21:02:56.105Z,98141.59
2023-05-05T21:05:23.050Z,98141.29
2023-05-05T21:07:50.348Z,98142.75
2023-05-05T21:10:17.033Z,98142.49
2023-05-05T21:12:43.672Z,98145.77
2023-05-05T21:15:11.109Z,98143.96
2023-05-05T21:17:37.958Z,98146.52
2023-05-05T21:20:05.308Z,98146.50
2023-05-05T21:22:32.177Z,98145.71
2023-05-05T21:25:11.909Z,98146.31
2023-05-05T21:27:38.565Z,98151.19
2023-05-05T21:30:06.746Z,98154.52
2023-05-05T21:32:35.442Z,98155.52
2023-05-05T21:35:02.890Z,98152.83
2023-05-05T21:37:29.833Z,98153.97
2023-05-05T21:39:56.358Z,98152.84
2023-05-05T21:42:23.413Z,98150.23
2023-05-05T21:44:50.048Z,98146.69
2023-05-05T21:47:17.023Z,98146.11
2023-05-05T21:49:43.572Z,98146.45
2023-05-05T21:52:10.296Z,98144.08
2023-05-05T21:54:36.942Z,98137.80
2023-05-05T21:57:03.882Z,98134.87
2023-05-05T21:59:30.385Z,98132.86
2023-05-05T22:01:57.046Z,98126.14
2023-05-05T22:04:23.736Z,98124.39
2023-05-05T22:06:50.383Z,98126.61
2023-05-05T22:09:17.266Z,98127.91
2023-05-05T22:11:44.026Z,98127.66
2023-05-05T22:14:10.661Z,98129.59
2023-05-05T22:16:37.277Z,98121.98
2023-05-05T22:19:03.791Z,98119.16
2023-05-05T22:21:30.912Z,98117.00
2023-05-05T22:23:57.776Z,98116.24
2023-05-05T22:26:24.531Z,98112.25
2023-05-05T22:28:51.045Z,98112.13
2023-05-05T22:31:17.878Z,98107.97
2023-05-05T22:33:44.429Z,98111.95
2023-05-05T22:36:11.106Z,98112.95
2023-05-05T22:38:37.918Z,98110.63
2023-05-05T22:41:05.947Z,98111.71
2023-05-05T22:43:32.786Z,98106.70
2023-05-05T22:45:59.386Z,98103.92
2023-05-05T22:48:26.287Z,98103.30
2023-05-05T22:50:52.983Z,98098.10
2023-05-05T22:53:19.477Z,98097.11
2023-05-05T22:55:45.985Z,98096.02
2023-05-05T22:58:12.818Z,98093.46
2023-05-05T23:00:39.390Z,98097.61
2023-05-05T23:03:06.113Z,98094.11
2023-05-05T23:05:33.831Z,98091.01
2023-05-05T23:08:00.830Z,98092.08
2023-05-05T23:10:28.038Z,98090.46
2023-05-05T23:12:54.982Z,98090.67
2023-05-05T23:15:22.208Z,98087.96
2023-05-05T23:17:49.008Z,98089.83
2023-05-05T23:20:15.941Z,98089.17
2023-05-05T23:22:42.589Z,98087.90
2023-05-05T23:25:09.761Z,98090.14
2023-05-05T23:27:38.081Z,98084.50
2023-05-05T23:30:06.410Z,98089.52
2023-05-05T23:32:33.274Z,98087.52
2023-05-05T23:35:00.450Z,98085.99
2023-05-05T23:37:27.011Z,98089.45
2023-05-05T23:39:53.925Z,98082.39
2023-05-05T23:42:20.642Z,98085.81
2023-05-05T23:44:47.412Z,98082.38
2023-05-05T23:47:14.280Z,98082.17
2023-05-05T23:49:40.851Z,98085.20
2023-05-05T23:52:07.769Z,98077.23
2023-05-05T23:54:34.301Z,98075.35
2023-05-05T23:57:01.718Z,98072.49
2023-05-05T23:59:28.228Z,98073.45
